Aviation Digital Data Service (ADDS)

Output produced by TAFs form (2131 UTC 17 July 2018)
found at http://www.aviationweather.gov/adds/tafs/
 
EGPH 172120Z 25004KT CAVOK 13/08 Q1014
TAF EGPH 171702Z 1718/1818 25007KT 9999 SCT035 
     PROB30 
     TEMPO 1812/1818 8000 -SHRA